sensor_id;sensor_type;location;lat;lon;timestamp;temperature;humidity
62154;DHT22;48140;45.486;9.226;2023-03-12T00:01:30;13.10;94.20
62154;DHT22;48140;45.486;9.226;2023-03-12T00:04:00;14.20;94.60
62154;DHT22;48140;45.486;9.226;2023-03-12T00:06:26;13.30;94.40
62154;DHT22;48140;45.486;9.226;2023-03-12T00:08:52;12.90;94.10
62154;DHT22;48140;45.486;9.226;2023-03-12T00:11:19;12.80;94.10
62154;DHT22;48140;45.486;9.226;2023-03-12T00:13:49;12.80;93.80
62154;DHT22;48140;45.486;9.226;2023-03-12T00:16:15;12.80;93.70
62154;DHT22;48140;45.486;9.226;2023-03-12T00:21:17;12.70;93.50
62154;DHT22;48140;45.486;9.226;2023-03-12T00:23:43;12.70;93.40
62154;DHT22;48140;45.486;9.226;2023-03-12T00:26:10;12.70;93.30
62154;DHT22;48140;45.486;9.226;2023-03-12T00:28:37;12.70;93.00
62154;DHT22;48140;45.486;9.226;2023-03-12T00:31:16;12.70;92.90
62154;DHT22;48140;45.486;9.226;2023-03-12T00:33:43;12.70;92.80
62154;DHT22;48140;45.486;9.226;2023-03-12T00:36:09;12.60;92.70
62154;DHT22;48140;45.486;9.226;2023-03-12T00:38:35;12.50;92.50
62154;DHT22;48140;45.486;9.226;2023-03-12T00:41:01;12.60;92.60
62154;DHT22;48140;45.486;9.226;2023-03-12T00:43:26;12.50;93.10
62154;DHT22;48140;45.486;9.226;2023-03-12T00:45:52;12.50;92.80
62154;DHT22;48140;45.486;9.226;2023-03-12T00:48:18;12.40;92.80
62154;DHT22;48140;45.486;9.226;2023-03-12T00:50:43;12.40;92.90
62154;DHT22;48140;45.486;9.226;2023-03-12T00:53:09;12.40;92.80
62154;DHT22;48140;45.486;9.226;2023-03-12T00:55:35;12.30;92.80
62154;DHT22;48140;45.486;9.226;2023-03-12T00:58:00;12.20;93.00
62154;DHT22;48140;45.486;9.226;2023-03-12T01:00:26;12.40;92.90
62154;DHT22;48140;45.486;9.226;2023-03-12T01:02:52;12.20;92.90
62154;DHT22;48140;45.486;9.226;2023-03-12T01:05:17;12.20;92.90
62154;DHT22;48140;45.486;9.226;2023-03-12T01:07:43;12.20;93.00
62154;DHT22;48140;45.486;9.226;2023-03-12T01:10:11;12.20;92.90
62154;DHT22;48140;45.486;9.226;2023-03-12T01:12:37;12.20;92.80
62154;DHT22;48140;45.486;9.226;2023-03-12T01:15:03;12.10;93.10
62154;DHT22;48140;45.486;9.226;2023-03-12T01:17:29;12.00;93.30
62154;DHT22;48140;45.486;9.226;2023-03-12T01:19:55;12.10;93.30
62154;DHT22;48140;45.486;9.226;2023-03-12T01:22:20;12.10;93.20
62154;DHT22;48140;45.486;9.226;2023-03-12T01:24:46;12.10;93.20
62154;DHT22;48140;45.486;9.226;2023-03-12T01:27:12;12.10;93.70
62154;DHT22;48140;45.486;9.226;2023-03-12T01:29:38;12.00;93.30
62154;DHT22;48140;45.486;9.226;2023-03-12T01:32:04;12.10;93.80
62154;DHT22;48140;45.486;9.226;2023-03-12T01:34:29;12.00;93.40
62154;DHT22;48140;45.486;9.226;2023-03-12T01:36:57;12.00;93.50
62154;DHT22;48140;45.486;9.226;2023-03-12T01:39:23;11.90;93.50
62154;DHT22;48140;45.486;9.226;2023-03-12T01:41:50;11.90;93.60
62154;DHT22;48140;45.486;9.226;2023-03-12T01:44:16;11.90;93.70
62154;DHT22;48140;45.486;9.226;2023-03-12T01:46:42;11.90;93.40
62154;DHT22;48140;45.486;9.226;2023-03-12T01:49:24;11.90;93.60
62154;DHT22;48140;45.486;9.226;2023-03-12T01:54:25;11.80;93.90
62154;DHT22;48140;45.486;9.226;2023-03-12T01:56:53;11.80;93.80
62154;DHT22;48140;45.486;9.226;2023-03-12T01:59:24;11.80;93.90
62154;DHT22;48140;45.486;9.226;2023-03-12T02:01:50;11.90;93.60
62154;DHT22;48140;45.486;9.226;2023-03-12T09:41:27;17.00;55.20
62154;DHT22;48140;45.486;9.226;2023-03-12T19:04:27;15.70;76.30
62154;DHT22;48140;45.486;9.226;2023-03-12T19:06:53;15.70;76.50
